ΕΜΥ, Εθνική Μετεωρολογική Υπηρεσία - Δελτία Καιρού, Προγνώσεις

ΑΕΡΟΝΑΥΤΙΛΙΑ

GREEK AIRPORTS CODES

TAF LGTT 071000Z 0712/0721 34020G30KT 9999 FEW015 BKN025 PROB40 TEMPO 0712/0716 5000 RA FEW010 BKN020=

EUROPEAN AIRPORTS CODES

LFPO 071400Z AUTO 10008KT 070V130 CAVOK 22/09 Q1025=